createdAt,value
2019-05-21T00:01:25.582Z,81.33
2019-05-21T00:03:59.054Z,89.53
2019-05-21T00:06:49.558Z,122.57
2019-05-21T00:09:19.527Z,101.67
2019-05-21T00:11:49.343Z,106.17
2019-05-21T00:14:19.207Z,101.27
2019-05-21T00:16:49.178Z,139.17
2019-05-21T00:19:21.442Z,101.70
2019-05-21T00:22:19.770Z,96.00
2019-05-21T00:32:16.728Z,103.00
2019-05-21T00:35:26.719Z,104.83
2019-05-21T06:55:09.868Z,82.33
2019-05-21T06:57:44.698Z,83.10
2019-05-21T07:00:15.739Z,89.50
2019-05-21T07:03:09.217Z,92.60
2019-05-21T07:05:57.604Z,88.73
2019-05-21T07:08:14.695Z,90.83
2019-05-21T07:10:44.744Z,83.23
2019-05-21T07:13:18.384Z,78.90
2019-05-21T07:15:48.667Z,82.90
2019-05-21T07:18:27.489Z,78.20
2019-05-21T11:00:14.444Z,44.20
2019-05-21T11:02:53.422Z,45.17
2019-05-21T11:05:28.835Z,53.07
2019-05-21T11:08:22.827Z,49.50
2019-05-21T11:10:36.805Z,43.10
2019-05-21T11:13:10.707Z,47.27
2019-05-21T11:15:42.029Z,48.57
2019-05-21T11:18:31.471Z,50.40
2019-05-21T11:23:57.317Z,50.33
2019-05-21T11:35:41.677Z,41.87
2019-05-21T11:40:12.751Z,37.13
2019-05-21T17:43:43.391Z,19.87
2019-05-21T17:56:56.294Z,16.10
2019-05-21T18:14:32.388Z,16.13
2019-05-21T18:21:03.993Z,17.60
2019-05-21T18:23:46.343Z,18.80
2019-05-21T18:26:16.205Z,17.73
2019-05-21T18:28:46.117Z,18.27
2019-05-21T18:31:16.180Z,16.73
2019-05-21T18:33:46.197Z,19.13
2019-05-21T18:36:16.049Z,18.33
2019-05-21T18:38:45.951Z,18.23
2019-05-21T18:41:16.952Z,20.40
2019-05-21T18:43:49.927Z,20.27
2019-05-21T18:46:18.570Z,22.70
2019-05-21T18:48:53.022Z,19.50
2019-05-21T18:58:25.405Z,23.90
2019-05-21T19:03:57.167Z,22.30
2019-05-21T19:11:07.927Z,25.03
2019-05-21T19:13:52.911Z,22.03
2019-05-21T19:16:23.542Z,21.33
